Time;durP1;ratioP1;P1;durP2;ratioP2;P2;SDS_P1;SDS_P2;PMS_P1;PMS_P2;Temp;Humidity;BMP_temperature;BMP_pressure;BME280_temperature;BME280_humidity;BME280_pressure;Samples;Min_cycle;Max_cycle;Signal;HPM_P1;HPM_P2
2022/09/27 00:00:32;;;;;;;3.17;1.83;;;;;;;18.77;48.72;100615.50;6155943;23;20495;-74
2022/09/27 00:02:59;;;;;;;4.13;2.08;;;;;;;18.91;48.93;100637.94;6156528;23;20029;-73
2022/09/27 00:05:26;;;;;;;7.47;2.15;;;;;;;18.90;48.48;100637.09;6154920;23;20017;-74
2022/09/27 00:07:53;;;;;;;9.15;4.35;;;;;;;18.90;48.30;100630.59;6179075;23;20025;-74
2022/09/27 00:10:20;;;;;;;6.82;3.08;;;;;;;18.68;48.64;100598.50;6155762;23;20021;-73
2022/09/27 00:12:47;;;;;;;5.38;2.10;;;;;;;18.77;48.89;100625.97;6155189;23;20025;-73
2022/09/27 00:15:14;;;;;;;6.13;2.17;;;;;;;18.98;48.88;100637.44;6155077;23;20453;-74
2022/09/27 00:17:41;;;;;;;4.20;3.90;;;;;;;19.24;48.61;100629.72;6178316;23;20025;-76
2022/09/27 00:20:09;;;;;;;5.32;1.80;;;;;;;19.50;48.44;100621.13;6155491;23;20353;-74
2022/09/27 00:22:36;;;;;;;4.35;2.38;;;;;;;19.50;48.07;100623.97;6154984;23;20026;-73
2022/09/27 00:25:06;;;;;;;3.30;1.90;;;;;;;19.33;48.26;100633.34;6154369;23;20025;-72
2022/09/27 00:27:33;;;;;;;6.15;1.60;;;;;;;19.24;48.51;100628.88;6156594;23;20022;-73
2022/09/27 00:30:00;;;;;;;5.28;2.10;;;;;;;19.09;48.61;100618.94;6155745;23;20021;-73
2022/09/27 00:32:26;;;;;;;2.58;1.83;;;;;;;19.03;48.62;100620.28;6179084;23;20022;-73
2022/09/27 00:34:53;;;;;;;6.32;2.28;;;;;;;18.81;48.58;100610.00;6156126;23;20100;-74
2022/09/27 00:37:20;;;;;;;10.88;3.53;;;;;;;18.80;48.80;100630.94;6155839;23;20025;-74
2022/09/27 00:39:47;;;;;;;3.72;1.88;;;;;;;18.58;49.27;100618.63;6156637;23;20044;-74
2022/09/27 00:42:15;;;;;;;5.55;2.05;;;;;;;18.48;49.74;100616.97;6179041;23;20021;-74
2022/09/27 00:44:51;;;;;;;6.75;2.42;;;;;;;18.29;49.37;100595.81;6156157;23;20017;-74
2022/09/27 00:47:31;;;;;;;4.18;2.08;;;;;;;18.26;49.61;100599.34;6155988;23;20025;-74
2022/09/27 00:50:04;;;;;;;4.80;2.03;;;;;;;18.37;49.49;100640.25;6155697;23;20338;-73
2022/09/27 00:52:54;;;;;;;3.20;1.67;;;;;;;18.22;49.48;100633.91;6156184;23;20022;-74
2022/09/27 00:55:32;;;;;;;11.82;2.35;;;;;;;18.17;50.01;100636.06;6156358;23;20017;-74
2022/09/27 00:57:59;;;;;;;6.10;3.08;;;;;;;18.02;50.45;100628.88;6155934;23;20032;-74
2022/09/27 01:00:27;;;;;;;3.70;2.20;;;;;;;17.97;50.30;100641.16;6155665;23;20084;-74
2022/09/27 01:02:55;;;;;;;5.10;2.58;;;;;;;17.84;50.34;100619.50;6156282;23;20028;-74
2022/09/27 01:05:24;;;;;;;6.00;3.17;;;;;;;17.88;50.39;100628.16;6156840;23;20024;-74
2022/09/27 01:07:55;;;;;;;5.28;3.05;;;;;;;17.75;50.11;100608.19;6156437;23;20025;-73
2022/09/27 01:10:24;;;;;;;5.70;3.15;;;;;;;18.01;50.23;100644.16;6156414;23;20072;-73
2022/09/27 01:13:06;;;;;;;5.82;2.83;;;;;;;18.21;50.05;100639.88;6155369;23;20022;-74
2022/09/27 01:15:48;;;;;;;5.90;2.85;;;;;;;18.07;49.91;100625.91;6178834;23;20459;-74
2022/09/27 01:18:32;;;;;;;4.78;2.70;;;;;;;18.21;49.93;100637.88;6155882;23;20532;-74
2022/09/27 01:21:05;;;;;;;4.18;2.40;;;;;;;18.25;50.19;100638.06;6156885;23;20045;-74
2022/09/27 01:23:53;;;;;;;3.85;2.13;;;;;;;18.34;49.79;100632.44;6153861;23;20027;-73
2022/09/27 01:26:38;;;;;;;4.95;2.40;;;;;;;18.63;49.84;100637.41;6154567;23;20021;-74
2022/09/27 01:29:42;;;;;;;4.32;1.60;;;;;;;18.95;49.18;100624.78;6154718;23;20025;-74
2022/09/27 01:32:33;;;;;;;3.35;1.55;;;;;;;19.16;48.58;100608.75;6153682;23;20024;-74
2022/09/27 01:35:00;;;;;;;1.70;1.20;;;;;;;19.51;48.47;100644.63;6155575;23;20024;-74
2022/09/27 01:37:33;;;;;;;3.28;1.50;;;;;;;19.60;47.68;100626.44;6154210;23;20036;-75
2022/09/27 01:40:27;;;;;;;4.20;1.83;;;;;;;19.48;47.81;100642.47;6155527;23;20056;-75
2022/09/27 01:43:00;;;;;;;13.60;1.85;;;;;;;19.30;47.91;100639.69;6155196;23;20402;-74
2022/09/27 01:45:37;;;;;;;2.40;1.55;;;;;;;19.45;47.84;100629.81;6155195;23;20025;-73
2022/09/27 01:48:23;;;;;;;2.15;1.38;;;;;;;19.79;47.67;100636.53;6156101;23;20021;-74
2022/09/27 01:51:03;;;;;;;2.97;1.30;;;;;;;19.99;47.08;100621.59;6154562;23;20025;-74
2022/09/27 01:53:36;;;;;;;;;;;;;;;19.64;47.43;100638.78;6156196;23;20044;-74
2022/09/27 01:56:08;;;;;;;2.60;1.88;;;;;;;19.54;47.52;100638.28;6155266;23;20260;-74
2022/09/27 01:58:58;;;;;;;6.05;1.80;;;;;;;19.78;47.95;100626.38;6155247;23;20028;-73
2022/09/27 02:01:31;;;;;;;1.77;1.13;;;;;;;20.16;46.88;100631.16;6154836;23;20022;-74
2022/09/27 02:04:00;;;;;;;4.38;1.20;;;;;;;19.70;46.79;100599.75;6177373;23;20025;-73
2022/09/27 02:06:33;;;;;;;4.78;1.63;;;;;;;19.55;47.18;100620.94;6154385;23;20025;-73
2022/09/27 02:09:08;;;;;;;2.38;1.42;;;;;;;19.34;47.19;100614.38;6155451;23;20022;-73
2022/09/27 02:11:40;;;;;;;3.63;1.60;;;;;;;19.20;47.57;100613.75;6154274;23;20021;-73
2022/09/27 02:14:26;;;;;;;6.25;1.67;;;;;;;19.33;47.72;100618.38;6153437;23;20022;-73
2022/09/27 02:17:09;;;;;;;5.22;1.55;;;;;;;19.45;47.26;100634.63;6153459;23;20357;-76
2022/09/27 02:20:18;;;;;;;3.58;1.52;;;;;;;19.11;47.33;100600.47;6155125;23;20025;-72
2022/09/27 02:22:52;;;;;;;3.55;1.80;;;;;;;19.36;47.74;100627.03;6152644;23;20025;-75
2022/09/27 02:25:24;;;;;;;2.40;1.75;;;;;;;19.76;47.08;100637.22;6154705;23;20044;-76
2022/09/27 02:28:00;;;;;;;6.70;2.08;;;;;;;19.99;46.58;100637.75;6154189;23;20021;-74
2022/09/27 02:30:27;;;;;;;5.70;2.35;;;;;;;19.83;46.42;100597.84;6152510;23;20029;-75
2022/09/27 02:32:54;;;;;;;3.95;1.85;;;;;;;19.85;46.03;100613.31;6154734;23;20021;-78
2022/09/27 02:35:26;;;;;;;7.22;2.42;;;;;;;19.74;46.27;100631.06;6154478;23;20397;-76
2022/09/27 02:37:54;;;;;;;3.85;1.88;;;;;;;19.36;46.58;100612.03;6155091;23;20022;-77
2022/09/27 02:40:22;;;;;;;4.50;3.05;;;;;;;19.21;46.78;100607.72;6176642;23;20021;-79
2022/09/27 02:42:49;;;;;;;4.22;2.63;;;;;;;19.29;46.68;100625.88;6153259;23;20469;-80
2022/09/27 02:45:18;;;;;;;4.28;1.90;;;;;;;19.45;46.68;100629.81;6154494;23;20025;-78
2022/09/27 02:47:55;;;;;;;3.33;1.80;;;;;;;19.42;46.69;100630.50;6154859;23;20029;-76
2022/09/27 02:50:31;;;;;;;2.70;1.70;;;;;;;19.37;46.43;100633.50;6154313;23;20239;-76
2022/09/27 02:53:20;;;;;;;4.50;2.10;;;;;;;19.08;46.67;100635.09;6154268;23;20022;-76
2022/09/27 02:55:59;;;;;;;2.80;1.63;;;;;;;19.00;46.98;100599.13;6154293;23;20025;-77
2022/09/27 02:58:41;;;;;;;3.45;1.35;;;;;;;19.37;46.65;100623.00;6153974;23;20037;-77
2022/09/27 03:01:15;;;;;;;2.60;1.33;;;;;;;19.31;46.62;100606.53;6154422;23;20036;-79
2022/09/27 03:03:48;;;;;;;3.78;1.45;;;;;;;19.35;46.52;100635.84;6154569;23;20022;-78
2022/09/27 03:06:17;;;;;;;7.72;1.60;;;;;;;19.16;46.64;100634.22;6155096;23;20337;-78
2022/09/27 03:08:45;;;;;;;5.13;1.40;;;;;;;18.98;46.58;100632.63;6154254;23;20457;-77
2022/09/27 03:11:11;;;;;;;3.70;1.38;;;;;;;18.71;46.87;100622.47;6154443;23;20479;-76
2022/09/27 03:13:38;;;;;;;3.15;1.40;;;;;;;18.61;46.60;100628.44;6154911;23;20027;-75
2022/09/27 03:16:25;;;;;;;4.25;1.42;;;;;;;18.43;46.87;100622.78;6154153;23;20029;-76
2022/09/27 03:18:52;;;;;;;2.85;1.10;;;;;;;18.35;47.45;100648.22;6155074;23;20475;-75
2022/09/27 03:21:19;;;;;;;4.38;1.35;;;;;;;18.12;47.68;100620.09;6154957;23;20021;-74
2022/09/27 03:23:46;;;;;;;4.57;1.80;;;;;;;18.08;47.52;100627.56;6155254;23;20487;-76
2022/09/27 03:26:12;;;;;;;3.97;1.50;;;;;;;17.93;47.88;100626.03;6154792;23;20025;-76
2022/09/27 03:28:39;;;;;;;3.80;1.98;;;;;;;17.77;48.02;100631.28;6154431;23;20021;-75
2022/09/27 03:31:06;;;;;;;3.63;1.77;;;;;;;17.68;48.71;100629.59;6154916;23;20026;-75
2022/09/27 03:33:33;;;;;;;2.78;1.52;;;;;;;17.66;48.80;100638.38;6155048;23;20025;-76
2022/09/27 03:36:00;;;;;;;4.90;1.50;;;;;;;17.87;48.67;100612.38;6156558;23;20442;-75
2022/09/27 03:38:26;;;;;;;2.83;1.60;;;;;;;17.98;48.30;100637.19;6156156;23;20026;-76
2022/09/27 03:40:53;;;;;;;6.35;1.52;;;;;;;17.98;48.54;100654.16;6156325;23;20027;-75
2022/09/27 03:43:20;;;;;;;4.13;1.63;;;;;;;17.86;48.61;100630.50;6156981;23;20027;-72
2022/09/27 03:45:47;;;;;;;4.88;1.52;;;;;;;17.77;48.24;100631.28;6156171;23;20029;-73
2022/09/27 03:48:14;;;;;;;4.75;1.50;;;;;;;17.76;48.61;100649.41;6156653;23;20469;-72
2022/09/27 03:50:41;;;;;;;3.20;1.83;;;;;;;17.54;49.18;100632.53;6155644;23;20029;-73
2022/09/27 03:53:07;;;;;;;2.03;1.40;;;;;;;17.61;48.85;100646.19;6156701;23;20029;-81
2022/09/27 03:55:34;;;;;;;6.03;1.50;;;;;;;17.50;49.15;100637.13;6156957;23;20025;-81
2022/09/27 03:58:01;;;;;;;5.00;1.88;;;;;;;17.44;49.37;100656.22;6158185;23;20033;-80
2022/09/27 04:00:31;;;;;;;3.72;1.60;;;;;;;17.29;49.45;100648.97;6155189;23;20025;-82
2022/09/27 04:02:59;;;;;;;;;;;;;;;17.09;49.64;100649.53;6157515;23;20025;-80
2022/09/27 04:05:27;;;;;;;5.40;1.70;;;;;;;17.04;50.03;100627.09;6156558;23;19939;-80
2022/09/27 04:07:55;;;;;;;2.50;1.83;;;;;;;17.03;50.09;100642.38;6156733;23;20364;-80
2022/09/27 04:10:22;;;;;;;5.20;2.05;;;;;;;17.02;50.35;100641.50;6154479;23;20032;-80
2022/09/27 04:12:49;;;;;;;5.22;2.10;;;;;;;16.89;50.26;100624.66;6155824;23;20022;-79
2022/09/27 04:15:16;;;;;;;9.15;1.80;;;;;;;16.86;50.26;100642.25;6155342;23;20085;-80
2022/09/27 04:17:43;;;;;;;5.05;1.67;;;;;;;16.76;50.32;100632.88;6161612;23;20021;-80
2022/09/27 04:20:10;;;;;;;4.45;2.30;;;;;;;16.68;50.54;100598.94;6156597;23;20033;-79
2022/09/27 04:22:42;;;;;;;3.88;2.03;;;;;;;16.91;50.09;100628.84;6156403;23;20036;-80
2022/09/27 04:25:10;;;;;;;3.20;1.80;;;;;;;16.88;50.42;100632.28;6154372;23;20027;-80
2022/09/27 04:27:37;;;;;;;3.35;1.60;;;;;;;16.90;50.24;100632.00;6156320;23;20365;-79
2022/09/27 04:30:05;;;;;;;5.38;1.90;;;;;;;16.92;50.50;100624.03;6156896;23;20021;-80
2022/09/27 04:32:32;;;;;;;5.97;1.67;;;;;;;16.96;50.32;100633.53;6156839;23;20029;-80
2022/09/27 04:37:45;;;;;;;5.97;2.22;;;;;;;16.77;50.49;100628.91;6156250;23;20021;-78
2022/09/27 04:40:12;;;;;;;4.63;1.98;;;;;;;16.57;50.76;100610.47;6156285;23;20021;-78
2022/09/27 04:42:39;;;;;;;3.30;1.70;;;;;;;16.67;50.74;100626.31;6156758;23;20033;-79
2022/09/27 04:45:07;;;;;;;4.30;1.83;;;;;;;16.75;50.86;100625.59;6156733;23;20021;-78
2022/09/27 04:47:34;;;;;;;3.00;1.88;;;;;;;16.87;50.67;100638.28;6156800;23;20100;-78
2022/09/27 04:50:00;;;;;;;3.05;1.80;;;;;;;16.86;51.28;100645.06;6156965;23;20349;-77
2022/09/27 04:52:27;;;;;;;2.35;1.30;;;;;;;16.91;50.83;100648.59;6156668;23;20025;-79
2022/09/27 04:54:54;;;;;;;2.40;1.40;;;;;;;16.88;51.18;100645.56;6156699;23;20025;-80
2022/09/27 04:57:21;;;;;;;3.97;1.77;;;;;;;17.11;51.01;100671.78;6156382;23;20104;-80
2022/09/27 04:59:49;;;;;;;4.55;1.42;;;;;;;17.24;50.86;100671.72;6157408;23;20026;-80
2022/09/27 05:02:16;;;;;;;1.17;0.88;;;;;;;17.46;50.86;100665.19;6157194;23;20348;-76
2022/09/27 05:04:43;;;;;;;2.33;1.38;;;;;;;17.63;50.45;100678.56;6155879;23;20018;-73
2022/09/27 05:07:10;;;;;;;5.13;2.55;;;;;;;17.61;50.03;100651.81;6155990;23;20026;-74
2022/09/27 05:09:37;;;;;;;3.70;1.50;;;;;;;17.40;50.04;100634.59;6156313;23;20028;-75
2022/09/27 05:12:06;;;;;;;2.97;1.45;;;;;;;17.52;49.95;100680.00;6154766;23;20022;-75
2022/09/27 05:14:33;;;;;;;2.20;1.40;;;;;;;17.32;50.41;100669.25;6156094;23;20021;-74
2022/09/27 05:17:00;;;;;;;4.28;1.40;;;;;;;17.25;50.43;100681.84;6156085;23;20032;-74
2022/09/27 05:19:27;;;;;;;2.97;1.70;;;;;;;17.01;50.70;100668.06;6155751;23;20389;-74
2022/09/27 05:21:54;;;;;;;3.97;2.33;;;;;;;16.93;50.71;100670.84;6156115;23;20022;-74
2022/09/27 05:24:21;;;;;;;2.72;1.40;;;;;;;16.86;50.88;100660.00;6155772;23;20025;-74
2022/09/27 05:26:48;;;;;;;5.72;1.95;;;;;;;16.88;50.96;100662.50;6154014;23;20018;-73
2022/09/27 05:29:14;;;;;;;3.72;1.55;;;;;;;17.08;50.20;100672.44;6154793;23;20026;-73
2022/09/27 05:31:41;;;;;;;3.67;1.30;;;;;;;17.13;50.54;100658.19;6155557;23;20400;-74
2022/09/27 05:34:09;;;;;;;7.85;1.50;;;;;;;17.18;50.46;100653.25;6155327;23;20029;-74
2022/09/27 05:36:36;;;;;;;8.25;1.90;;;;;;;16.79;50.47;100600.41;6155013;23;20018;-75
2022/09/27 05:39:04;;;;;;;5.40;1.80;;;;;;;17.23;50.21;100666.38;6155751;23;20022;-75
2022/09/27 05:41:31;;;;;;;8.27;2.28;;;;;;;17.22;49.96;100674.00;6155769;23;20460;-73
2022/09/27 05:43:58;;;;;;;7.47;2.05;;;;;;;17.36;50.17;100678.75;6155147;23;20349;-74
2022/09/27 05:46:25;;;;;;;4.00;1.80;;;;;;;17.43;50.08;100673.47;6155938;23;20345;-74
2022/09/27 05:48:52;;;;;;;8.10;2.40;;;;;;;17.43;50.19;100668.66;6154359;23;20076;-75
2022/09/27 05:51:19;;;;;;;11.30;2.08;;;;;;;17.42;49.77;100671.81;6152344;23;20030;-74
2022/09/27 05:53:46;;;;;;;2.83;1.75;;;;;;;17.33;49.86;100668.09;6151363;23;20064;-78
2022/09/27 05:56:13;;;;;;;4.70;1.85;;;;;;;17.45;49.89;100690.94;6155269;23;20457;-75
2022/09/27 05:58:40;;;;;;;5.38;2.05;;;;;;;17.63;50.21;100689.03;6154813;23;20028;-77
2022/09/27 06:01:08;;;;;;;5.57;2.00;;;;;;;17.63;50.19;100663.59;6153838;23;20029;-76
2022/09/27 06:03:35;;;;;;;3.47;1.80;;;;;;;17.76;49.93;100700.25;6186233;23;20037;-75
2022/09/27 06:06:06;;;;;;;4.68;2.30;;;;;;;17.63;49.71;100680.56;6174628;23;20022;-76
2022/09/27 06:08:34;;;;;;;7.65;1.85;;;;;;;17.62;49.63;100693.00;6172745;23;20030;-76
2022/09/27 06:11:04;;;;;;;7.18;1.60;;;;;;;17.30;49.84;100647.03;6177414;23;20021;-76
2022/09/27 06:13:38;;;;;;;6.85;2.47;;;;;;;17.29;50.30;100670.72;6163351;23;20032;-77
2022/09/27 06:16:07;;;;;;;3.50;1.65;;;;;;;17.42;50.09;100695.22;6156706;23;20425;-76
2022/09/27 06:18:34;;;;;;;6.35;2.75;;;;;;;17.19;50.21;100685.94;6156985;23;20026;-76
2022/09/27 06:21:02;;;;;;;4.88;2.85;;;;;;;17.24;50.35;100693.47;6156681;23;20021;-76
2022/09/27 06:23:33;;;;;;;6.30;2.60;;;;;;;17.10;50.48;100682.25;6153500;23;20079;-76
2022/09/27 06:26:02;;;;;;;8.73;2.47;;;;;;;17.19;50.77;100700.06;6152836;23;20021;-76
2022/09/27 06:28:29;;;;;;;4.28;2.50;;;;;;;17.05;50.72;100696.47;6154116;23;20025;-75
2022/09/27 06:30:59;;;;;;;3.70;2.00;;;;;;;17.16;50.78;100708.31;6153912;23;20025;-81
2022/09/27 06:33:29;;;;;;;;;;;;;;;16.97;50.71;100705.72;6155325;23;20053;-76
2022/09/27 06:35:56;;;;;;;6.43;1.90;;;;;;;16.87;51.26;100705.97;6154920;23;20251;-76
2022/09/27 06:38:25;;;;;;;6.05;1.80;;;;;;;16.94;51.38;100709.19;6154619;23;20098;-76
2022/09/27 06:40:52;;;;;;;6.28;2.80;;;;;;;16.90;51.07;100722.25;6151890;23;20453;-75
2022/09/27 06:43:21;;;;;;;3.55;1.88;;;;;;;16.87;51.12;100703.97;6152118;23;20104;-79
2022/09/27 06:45:47;;;;;;;3.22;1.90;;;;;;;16.97;51.04;100717.00;6152243;23;20032;-81
2022/09/27 06:48:16;;;;;;;5.05;2.13;;;;;;;17.02;51.16;100703.59;6154389;23;20041;-80
2022/09/27 06:50:44;;;;;;;3.42;2.17;;;;;;;17.05;51.12;100702.94;6156189;23;20108;-79
2022/09/27 06:53:13;;;;;;;7.85;2.33;;;;;;;16.96;51.13;100681.50;6156121;23;20357;-81
2022/09/27 06:55:41;;;;;;;5.00;2.30;;;;;;;17.12;50.72;100699.66;6156051;23;20026;-79
2022/09/27 07:00:55;;;;;;;3.72;2.13;;;;;;;16.95;50.86;100662.88;6155453;23;20021;-79
2022/09/27 07:03:25;;;;;;;4.43;2.17;;;;;;;17.17;51.44;100693.91;6177687;23;20468;-76
2022/09/27 07:06:02;;;;;;;4.28;2.13;;;;;;;17.33;51.61;100721.72;6155089;23;20017;-83
2022/09/27 07:08:29;;;;;;;4.38;1.80;;;;;;;17.32;51.45;100717.25;6155769;23;20109;-78
2022/09/27 07:11:02;;;;;;;3.95;2.10;;;;;;;17.31;51.59;100713.59;6157335;23;20028;-79
2022/09/27 07:13:33;;;;;;;8.65;3.10;;;;;;;17.42;51.50;100728.28;6158093;23;20452;-79
2022/09/27 07:16:00;;;;;;;5.85;2.35;;;;;;;17.56;51.38;100740.31;6181794;23;20321;-78
2022/09/27 07:18:27;;;;;;;11.20;4.93;;;;;;;17.46;51.54;100718.00;6158094;23;20022;-80
2022/09/27 07:20:55;;;;;;;11.05;4.18;;;;;;;17.66;51.69;100720.28;6156117;23;20022;-80
2022/09/27 07:23:26;;;;;;;11.73;2.95;;;;;;;17.92;51.20;100745.03;6155149;23;20492;-78
2022/09/27 07:25:53;;;;;;;8.68;3.53;;;;;;;17.96;51.30;100723.44;6154312;23;20021;-77
2022/09/27 07:28:20;;;;;;;5.15;3.10;;;;;;;18.11;51.35;100731.47;6154679;23;20026;-78
2022/09/27 07:30:48;;;;;;;3.85;1.90;;;;;;;18.15;51.26;100709.03;6150933;23;20025;-77
2022/09/27 07:33:15;;;;;;;4.40;1.90;;;;;;;18.58;51.34;100737.41;6154489;23;20100;-77
2022/09/27 07:35:42;;;;;;;3.10;2.08;;;;;;;18.82;50.68;100739.81;6154378;23;20021;-77
2022/09/27 07:38:12;;;;;;;4.32;2.15;;;;;;;19.08;50.24;100728.50;6155601;23;20025;-77
2022/09/27 07:40:40;;;;;;;4.88;1.77;;;;;;;19.47;50.19;100735.09;6154502;23;20058;-77
2022/09/27 07:43:08;;;;;;;6.57;2.50;;;;;;;19.81;49.49;100751.22;6153160;23;20029;-77
2022/09/27 07:45:36;;;;;;;5.80;2.25;;;;;;;19.92;49.35;100734.66;6152101;23;20036;-77
2022/09/27 07:48:07;;;;;;;3.17;1.98;;;;;;;20.31;49.08;100735.50;6152195;23;20031;-77
2022/09/27 07:50:34;;;;;;;8.75;2.70;;;;;;;20.56;48.64;100747.91;6155024;23;20033;-78
2022/09/27 07:53:03;;;;;;;5.43;3.28;;;;;;;20.59;48.41;100731.00;6155940;23;20021;-76
2022/09/27 07:55:31;;;;;;;4.70;2.22;;;;;;;20.76;48.52;100735.75;6155619;23;20017;-77
2022/09/27 07:58:02;;;;;;;5.50;2.15;;;;;;;20.83;48.32;100723.84;6153483;23;20365;-77
2022/09/27 08:00:29;;;;;;;5.65;2.42;;;;;;;21.24;47.87;100744.88;6153491;23;20100;-76
2022/09/27 08:02:56;;;;;;;5.75;2.50;;;;;;;21.59;47.51;100762.44;6152981;23;20028;-76
2022/09/27 08:05:23;;;;;;;8.52;3.75;;;;;;;21.67;47.11;100740.78;6155915;23;20044;-76
2022/09/27 08:07:55;;;;;;;6.57;2.92;;;;;;;22.23;46.81;100778.13;6155593;23;20364;-77
2022/09/27 08:10:26;;;;;;;4.90;2.08;;;;;;;22.61;46.07;100779.78;6155839;23;20029;-76
2022/09/27 08:12:53;;;;;;;11.65;2.78;;;;;;;22.69;46.32;100781.66;6154969;23;20022;-76
2022/09/27 08:15:20;;;;;;;5.88;2.47;;;;;;;22.92;45.61;100785.69;6155534;23;20364;-76
2022/09/27 08:17:47;;;;;;;6.90;2.33;;;;;;;22.94;45.59;100760.56;6156051;23;20021;-77
2022/09/27 08:20:14;;;;;;;3.78;2.22;;;;;;;23.20;45.55;100782.06;6156293;23;20028;-76
2022/09/27 08:22:42;;;;;;;9.20;2.70;;;;;;;23.45;45.33;100776.28;6155833;23;20021;-77
2022/09/27 08:25:09;;;;;;;4.35;2.78;;;;;;;23.59;44.78;100773.84;6155607;23;20029;-77
2022/09/27 08:27:36;;;;;;;5.38;2.97;;;;;;;24.07;44.07;100769.09;6151482;23;20022;-77
2022/09/27 08:30:03;;;;;;;6.43;2.95;;;;;;;24.87;43.43;100792.72;6154025;23;20033;-76
2022/09/27 08:32:30;;;;;;;4.95;2.72;;;;;;;25.57;42.26;100809.00;6154509;23;20021;-76
2022/09/27 08:34:58;;;;;;;5.85;2.80;;;;;;;25.97;41.72;100772.22;6154715;23;20352;-76
2022/09/27 08:37:25;;;;;;;6.88;2.42;;;;;;;26.51;40.92;100778.94;6154006;23;20025;-76
2022/09/27 08:39:52;;;;;;;5.95;2.33;;;;;;;26.87;40.61;100785.22;6155107;23;20033;-76
2022/09/27 08:42:55;;;;;;;4.55;2.08;;;;;;;27.06;40.33;100764.22;6156343;23;20026;-76
2022/09/27 08:45:30;;;;;;;3.28;1.60;;;;;;;27.54;39.87;100791.09;6154935;23;20029;-75
2022/09/27 08:48:00;;;;;;;5.32;1.60;;;;;;;27.61;39.35;100744.47;6153555;23;20464;-77
2022/09/27 08:50:35;;;;;;;2.28;1.67;;;;;;;28.08;38.66;100786.00;6153939;23;20026;-76
2022/09/27 08:53:26;;;;;;;4.95;1.65;;;;;;;28.33;38.54;100797.72;6155483;23;20025;-75
2022/09/27 08:55:56;;;;;;;3.30;1.60;;;;;;;28.41;38.05;100779.38;6154665;23;20032;-76
2022/09/27 08:58:32;;;;;;;5.82;1.80;;;;;;;28.56;37.92;100786.88;6155072;23;20026;-76
2022/09/27 09:01:03;;;;;;;2.70;1.40;;;;;;;28.84;37.64;100799.81;6156004;23;20025;-76
2022/09/27 09:03:34;;;;;;;2.35;1.08;;;;;;;29.05;36.85;100791.34;6155163;23;20025;-75
2022/09/27 09:06:23;;;;;;;2.58;1.52;;;;;;;29.24;36.90;100798.03;6179782;23;20022;-76
2022/09/27 09:08:50;;;;;;;;;;;;;;;29.24;37.49;100798.88;6155042;23;20026;-75
2022/09/27 09:14:24;;;;;;;5.13;1.80;;;;;;;29.99;36.03;100795.50;6156120;23;20449;-75
2022/09/27 09:17:37;;;;;;;4.10;2.53;;;;;;;30.04;36.15;100800.00;6154792;23;20017;-75
2022/09/27 09:20:19;;;;;;;4.47;1.90;;;;;;;30.23;35.22;100799.69;6133699;23;20025;-76
2022/09/27 09:23:24;;;;;;;3.08;2.17;;;;;;;30.49;34.95;100800.50;6151434;23;20022;-75
2022/09/27 09:25:57;;;;;;;4.50;1.60;;;;;;;30.63;34.44;100809.13;6121124;23;20026;-75
2022/09/27 09:29:10;;;;;;;3.67;1.77;;;;;;;30.62;34.76;100811.22;6154520;23;20025;-75
2022/09/27 09:31:59;;;;;;;1.80;1.35;;;;;;;30.86;34.44;100809.56;6089630;23;20026;-75
2022/09/27 09:34:32;;;;;;;3.92;1.80;;;;;;;30.92;33.42;100807.91;6202173;23;20400;-76
2022/09/27 09:37:15;;;;;;;3.95;1.83;;;;;;;30.98;33.24;100811.22;6154385;23;20446;-76
2022/09/27 09:39:51;;;;;;;2.40;1.65;;;;;;;31.25;33.11;100808.69;6154547;23;20028;-75
2022/09/27 09:42:31;;;;;;;4.22;1.52;;;;;;;31.27;32.43;100823.50;6153886;23;20025;-75
2022/09/27 09:45:03;;;;;;;4.72;1.77;;;;;;;31.26;32.39;100798.78;6153815;23;20021;-76
2022/09/27 09:47:40;;;;;;;2.42;1.30;;;;;;;31.35;32.60;100784.78;6152695;23;20480;-76
2022/09/27 09:50:18;;;;;;;4.38;1.73;;;;;;;31.41;32.14;100801.66;6155622;23;20021;-77
2022/09/27 09:52:51;;;;;;;3.75;1.42;;;;;;;31.58;31.35;100794.97;6154497;23;20049;-75
2022/09/27 09:55:29;;;;;;;2.55;1.23;;;;;;;31.74;31.83;100792.44;6155167;23;20028;-76
2022/09/27 09:58:14;;;;;;;3.28;1.40;;;;;;;31.61;31.72;100797.03;6155531;23;20024;-75
2022/09/27 10:00:47;;;;;;;1.67;1.27;;;;;;;31.56;31.05;100777.28;6154561;23;20029;-76
2022/09/27 10:03:13;;;;;;;1.83;1.05;;;;;;;31.65;31.16;100802.78;6154614;23;20048;-76
2022/09/27 10:05:43;;;;;;;3.08;1.17;;;;;;;31.53;31.35;100795.44;6153913;23;20022;-76
2022/09/27 10:08:15;;;;;;;;;;;;;;;31.05;32.84;100807.50;6155596;23;20025;-77
2022/09/27 10:10:42;;;;;;;3.30;1.42;;;;;;;31.09;31.58;100788.94;6152787;23;19965;-76
2022/09/27 10:13:22;;;;;;;2.13;1.30;;;;;;;31.13;31.63;100766.66;6154989;23;20025;-75
2022/09/27 10:16:01;;;;;;;3.15;1.42;;;;;;;31.12;31.62;100772.88;6152992;23;20021;-76
2022/09/27 10:18:28;;;;;;;2.15;1.23;;;;;;;31.08;31.70;100778.66;6128904;23;20420;-76
2022/09/27 10:21:00;;;;;;;2.50;1.40;;;;;;;31.22;31.05;100783.56;6153598;23;20651;-76
2022/09/27 10:23:27;;;;;;;2.92;1.35;;;;;;;31.24;31.62;100777.34;6153105;23;20330;-76
2022/09/27 10:25:57;;;;;;;3.08;1.58;;;;;;;31.49;30.76;100794.59;6154696;23;20045;-77
2022/09/27 10:28:36;;;;;;;3.60;1.30;;;;;;;31.27;30.75;100757.16;6154590;23;20025;-76
2022/09/27 10:31:14;;;;;;;4.43;1.90;;;;;;;31.07;31.30;100755.97;6154701;23;20061;-76
2022/09/27 10:33:52;;;;;;;2.65;1.23;;;;;;;30.99;31.04;100783.19;6155118;23;20021;-77
2022/09/27 10:36:28;;;;;;;3.20;1.90;;;;;;;31.02;31.75;100788.13;6154053;23;20025;-77
2022/09/27 10:39:22;;;;;;;2.58;1.40;;;;;;;31.09;32.16;100777.41;6170844;23;20064;-76
2022/09/27 10:41:49;;;;;;;3.17;1.65;;;;;;;31.31;31.39;100791.75;6168344;23;20360;-76
2022/09/27 10:44:16;;;;;;;4.72;1.88;;;;;;;31.72;31.13;100788.31;6174458;23;20029;-75
2022/09/27 10:46:49;;;;;;;5.97;3.03;;;;;;;31.88;30.87;100782.91;6173252;23;20021;-75
2022/09/27 10:49:29;;;;;;;4.80;2.55;;;;;;;31.99;30.73;100768.38;6182207;23;20032;-76
2022/09/27 10:52:06;;;;;;;4.28;2.85;;;;;;;32.14;30.99;100781.50;6156405;23;20025;-76
2022/09/27 10:54:38;;;;;;;7.10;3.33;;;;;;;32.13;30.55;100787.69;6156584;23;20053;-75
2022/09/27 10:57:17;;;;;;;3.40;1.70;;;;;;;32.07;30.97;100781.56;6155592;23;20026;-76
2022/09/27 10:59:49;;;;;;;;;;;;;;;31.84;32.00;100788.66;6157624;23;20029;-76
2022/09/27 11:02:19;;;;;;;4.25;1.98;;;;;;;32.23;30.80;100778.94;6156459;23;19927;-76
2022/09/27 11:05:07;;;;;;;7.43;2.30;;;;;;;32.16;30.77;100799.22;6154645;23;20025;-76
2022/09/27 11:07:49;;;;;;;4.72;2.60;;;;;;;32.56;30.50;100788.22;6153906;23;20077;-76
2022/09/27 11:10:31;;;;;;;3.90;2.30;;;;;;;33.22;29.73;100778.47;6154988;23;20048;-76
2022/09/27 11:13:19;;;;;;;6.18;2.30;;;;;;;33.30;29.94;100788.75;6152755;23;20025;-76
2022/09/27 11:16:21;;;;;;;3.90;1.95;;;;;;;33.17;29.76;100782.69;6155015;23;20128;-76
2022/09/27 11:19:09;;;;;;;5.82;2.67;;;;;;;33.04;29.74;100767.13;6152919;23;20053;-75
2022/09/27 11:22:07;;;;;;;5.78;2.30;;;;;;;32.95;29.84;100773.41;6154346;23;20125;-75
2022/09/27 11:24:52;;;;;;;7.63;2.65;;;;;;;33.03;29.69;100794.41;6154598;23;20025;-75
2022/09/27 11:27:44;;;;;;;4.35;2.22;;;;;;;33.23;29.63;100778.06;6153109;23;20033;-76
2022/09/27 11:30:15;;;;;;;2.63;1.80;;;;;;;33.51;28.75;100776.09;6153108;23;20479;-75
2022/09/27 11:32:54;;;;;;;3.67;2.10;;;;;;;33.89;28.68;100784.69;6154363;23;20028;-76
2022/09/27 11:35:32;;;;;;;8.15;3.42;;;;;;;34.01;28.28;100766.72;6152251;23;20018;-75
2022/09/27 11:38:09;;;;;;;8.48;2.30;;;;;;;34.27;28.25;100762.19;6151840;23;20022;-74
2022/09/27 11:40:43;;;;;;;4.95;2.38;;;;;;;34.59;27.59;100761.66;6150822;23;20105;-75
2022/09/27 11:43:16;;;;;;;8.07;2.25;;;;;;;34.44;27.80;100763.16;6153104;23;20399;-76
2022/09/27 11:46:09;;;;;;;8.00;2.72;;;;;;;34.60;27.17;100757.50;6154578;23;20106;-77
2022/09/27 11:48:55;;;;;;;5.80;2.10;;;;;;;35.21;26.67;100752.63;6155401;23;20476;-76
2022/09/27 11:51:44;;;;;;;6.20;2.20;;;;;;;35.61;25.86;100750.56;6153531;23;20022;-76
2022/09/27 11:54:47;;;;;;;7.85;3.15;;;;;;;35.88;26.10;100749.56;6154833;23;20025;-75
2022/09/27 11:57:21;;;;;;;8.85;2.03;;;;;;;36.60;25.05;100752.38;6156715;23;20018;-76
2022/09/27 12:00:14;;;;;;;5.70;2.20;;;;;;;37.38;24.31;100755.22;6155621;23;20022;-76